createdAt,value
2024-02-28T00:02:04.149Z,32.53
2024-02-28T00:04:30.821Z,33.21
2024-02-28T00:06:57.666Z,33.62
2024-02-28T00:09:24.360Z,34.30
2024-02-28T00:11:51.074Z,33.61
2024-02-28T00:14:17.770Z,34.00
2024-02-28T00:16:46.356Z,33.63
2024-02-28T00:19:13.914Z,33.76
2024-02-28T00:21:43.631Z,33.15
2024-02-28T00:24:10.676Z,31.80
2024-02-28T00:26:42.436Z,32.38
2024-02-28T00:29:09.401Z,32.32
2024-02-28T00:31:36.566Z,29.65
2024-02-28T00:34:03.355Z,28.77
2024-02-28T00:36:36.749Z,28.42
2024-02-28T00:39:11.960Z,27.50
2024-02-28T00:41:38.723Z,27.78
2024-02-28T00:44:05.577Z,28.10
2024-02-28T00:46:32.168Z,29.20
2024-02-28T00:48:58.841Z,30.26
2024-02-28T00:51:25.494Z,30.13
2024-02-28T00:53:52.173Z,29.65
2024-02-28T00:56:18.802Z,30.44
2024-02-28T00:58:46.371Z,30.40
2024-02-28T01:01:13.443Z,29.32
2024-02-28T01:03:40.389Z,29.46
2024-02-28T01:06:07.050Z,29.45
2024-02-28T01:08:33.746Z,29.61
2024-02-28T01:11:00.436Z,29.04
2024-02-28T01:13:27.079Z,27.93
2024-02-28T01:15:53.813Z,28.87
2024-02-28T01:18:20.500Z,29.28
2024-02-28T01:20:47.256Z,28.37
2024-02-28T01:23:13.847Z,28.02
2024-02-28T01:25:40.530Z,29.78
2024-02-28T01:28:07.201Z,29.36
2024-02-28T01:30:33.859Z,29.76
2024-02-28T01:33:01.109Z,29.05
2024-02-28T01:35:27.750Z,25.96
2024-02-28T01:37:54.360Z,26.39
2024-02-28T01:40:20.985Z,27.23
2024-02-28T01:42:47.775Z,28.28
2024-02-28T01:45:15.761Z,31.10
2024-02-28T01:47:43.768Z,34.61
2024-02-28T01:50:11.867Z,36.46
2024-02-28T01:52:40.273Z,38.35
2024-02-28T01:55:07.755Z,41.08
2024-02-28T01:57:36.257Z,41.40
2024-02-28T02:00:05.505Z,43.85
2024-02-28T02:02:32.314Z,41.88
2024-02-28T02:04:59.538Z,41.14
2024-02-28T02:07:26.948Z,41.65
2024-02-28T02:09:54.303Z,43.79
2024-02-28T02:12:21.104Z,41.74
2024-02-28T02:14:50.938Z,42.11
2024-02-28T02:17:17.591Z,42.64
2024-02-28T02:19:45.102Z,42.84
2024-02-28T02:22:14.711Z,39.86
2024-02-28T02:24:41.912Z,36.89
2024-02-28T02:27:08.763Z,38.55
2024-02-28T02:29:35.516Z,37.89
2024-02-28T02:32:02.187Z,36.95
2024-02-28T02:34:28.898Z,36.91
2024-02-28T02:36:55.620Z,35.26
2024-02-28T02:39:22.389Z,35.79
2024-02-28T02:41:49.134Z,36.30
2024-02-28T02:44:15.840Z,36.45
2024-02-28T02:46:42.914Z,36.09
2024-02-28T02:49:09.676Z,34.91
2024-02-28T02:51:36.446Z,34.90
2024-02-28T02:54:03.288Z,34.79
2024-02-28T02:56:29.901Z,33.99
2024-02-28T02:58:56.506Z,34.20
2024-02-28T03:01:23.125Z,33.87
2024-02-28T03:03:49.930Z,33.17
2024-02-28T03:06:16.685Z,34.05
2024-02-28T03:08:43.421Z,32.08
2024-02-28T03:11:10.312Z,32.86
2024-02-28T03:13:37.042Z,33.47
2024-02-28T03:16:07.271Z,32.86
2024-02-28T03:18:34.005Z,32.77
2024-02-28T03:21:00.718Z,33.33
2024-02-28T03:23:27.324Z,32.77
2024-02-28T03:25:53.968Z,32.71
2024-02-28T03:28:20.628Z,33.27
2024-02-28T03:30:47.276Z,33.16
2024-02-28T03:33:13.940Z,33.01
2024-02-28T03:35:40.583Z,32.87
2024-02-28T03:38:07.232Z,33.07
2024-02-28T03:40:34.550Z,33.15
2024-02-28T03:43:01.402Z,33.26
2024-02-28T03:45:30.933Z,32.37
2024-02-28T03:47:57.660Z,33.04
2024-02-28T03:50:24.306Z,33.95
2024-02-28T03:52:50.945Z,34.85
2024-02-28T03:55:17.843Z,34.10
2024-02-28T03:57:48.560Z,35.43
2024-02-28T04:00:15.975Z,34.34
2024-02-28T04:02:43.654Z,33.66
2024-02-28T04:05:10.499Z,33.38
2024-02-28T04:07:37.863Z,33.28
2024-02-28T04:10:06.364Z,32.39
2024-02-28T04:12:34.155Z,32.93
2024-02-28T04:15:01.053Z,33.64
2024-02-28T04:17:27.749Z,32.00
2024-02-28T04:19:54.482Z,32.16
2024-02-28T04:22:21.168Z,32.65
2024-02-28T04:24:47.860Z,31.90
2024-02-28T04:27:14.548Z,31.87
2024-02-28T04:29:41.221Z,31.26
2024-02-28T04:32:07.965Z,31.63
2024-02-28T04:34:34.615Z,31.35
2024-02-28T04:37:01.266Z,31.79
2024-02-28T04:39:27.944Z,32.17
2024-02-28T04:41:54.593Z,31.58
2024-02-28T04:44:21.314Z,31.02
2024-02-28T04:46:47.948Z,31.18
2024-02-28T04:49:14.624Z,30.92
2024-02-28T04:51:41.367Z,29.99
2024-02-28T04:54:07.968Z,29.98
2024-02-28T04:56:34.566Z,29.69
2024-02-28T04:59:01.142Z,30.59
2024-02-28T05:01:29.562Z,30.26
2024-02-28T05:03:56.528Z,30.21
2024-02-28T05:06:23.363Z,30.52
2024-02-28T05:08:50.008Z,29.64
2024-02-28T05:11:16.636Z,28.54
2024-02-28T05:13:43.360Z,29.36
2024-02-28T05:16:14.270Z,29.19
2024-02-28T05:18:40.916Z,28.82
2024-02-28T05:21:07.630Z,29.68
2024-02-28T05:23:35.401Z,29.06
2024-02-28T05:26:05.087Z,28.43
2024-02-28T05:28:34.172Z,28.28
2024-02-28T05:31:03.939Z,28.53
2024-02-28T05:33:30.776Z,28.08
2024-02-28T05:35:57.402Z,27.51
2024-02-28T05:38:24.010Z,27.83
2024-02-28T05:40:50.609Z,27.60
2024-02-28T05:43:17.232Z,27.73
2024-02-28T05:45:43.895Z,27.38
2024-02-28T05:48:10.705Z,27.88
2024-02-28T05:50:37.354Z,27.81
2024-02-28T05:53:04.120Z,27.43
2024-02-28T05:55:30.959Z,28.22
2024-02-28T05:57:57.608Z,28.82
2024-02-28T06:00:24.271Z,28.71
2024-02-28T06:02:50.937Z,29.32
2024-02-28T06:05:17.731Z,29.73
2024-02-28T06:07:44.335Z,29.60
2024-02-28T06:10:11.629Z,29.71
2024-02-28T06:12:38.435Z,28.98
2024-02-28T06:15:06.986Z,30.45
2024-02-28T06:17:33.646Z,30.80
2024-02-28T06:20:00.535Z,31.16
2024-02-28T06:22:27.133Z,31.58
2024-02-28T06:24:53.877Z,31.58
2024-02-28T06:27:20.617Z,31.04
2024-02-28T06:29:47.375Z,30.25
2024-02-28T06:32:13.962Z,31.06
2024-02-28T06:34:40.639Z,30.88
2024-02-28T06:37:07.270Z,30.90
2024-02-28T06:39:33.960Z,31.54
2024-02-28T06:42:00.599Z,31.95
2024-02-28T06:44:27.344Z,33.82
2024-02-28T06:46:53.993Z,33.92
2024-02-28T06:49:20.599Z,33.36
2024-02-28T06:51:47.342Z,33.83
2024-02-28T06:54:14.105Z,32.59
2024-02-28T06:56:40.761Z,32.30
2024-02-28T06:59:08.125Z,31.56
2024-02-28T07:01:35.092Z,31.80
2024-02-28T07:04:02.030Z,31.01
2024-02-28T07:06:28.777Z,30.92
2024-02-28T07:08:55.528Z,31.16
2024-02-28T07:11:25.322Z,31.25
2024-02-28T07:13:51.926Z,31.52
2024-02-28T07:16:18.522Z,31.25
2024-02-28T07:18:45.176Z,31.52
2024-02-28T07:21:11.925Z,31.11
2024-02-28T07:23:42.152Z,30.70
2024-02-28T07:26:16.265Z,30.69
2024-02-28T07:28:52.304Z,31.21
2024-02-28T07:31:20.297Z,30.30
2024-02-28T07:33:47.087Z,30.18
2024-02-28T07:36:13.762Z,30.92
2024-02-28T07:38:43.050Z,30.04
2024-02-28T07:41:09.737Z,30.40
2024-02-28T07:43:39.073Z,30.40
2024-02-28T07:46:10.560Z,30.89
2024-02-28T07:48:37.471Z,30.29
2024-02-28T07:51:08.813Z,30.37
2024-02-28T07:53:35.838Z,30.88
2024-02-28T07:56:02.692Z,29.91
2024-02-28T07:58:29.308Z,30.01
2024-02-28T08:00:56.091Z,30.78
2024-02-28T08:03:24.909Z,30.89
2024-02-28T08:05:51.613Z,30.70
2024-02-28T08:08:18.491Z,29.70
2024-02-28T08:10:47.351Z,30.17
2024-02-28T08:13:14.468Z,29.56
2024-02-28T08:15:41.255Z,30.11
2024-02-28T08:18:08.079Z,30.08
2024-02-28T08:20:34.793Z,29.16
2024-02-28T08:23:01.452Z,29.14
2024-02-28T08:25:28.074Z,29.50
2024-02-28T08:27:54.751Z,29.34
2024-02-28T08:30:21.556Z,29.76
2024-02-28T08:32:48.317Z,30.52
2024-02-28T08:35:15.095Z,29.78
2024-02-28T08:37:41.960Z,30.37
2024-02-28T08:40:09.672Z,29.82
2024-02-28T08:42:36.491Z,32.34
2024-02-28T08:45:07.065Z,32.20
2024-02-28T08:47:34.442Z,30.28
2024-02-28T08:50:01.169Z,30.49
2024-02-28T08:52:27.805Z,30.73
2024-02-28T08:54:54.941Z,31.03
2024-02-28T08:57:23.493Z,31.86
2024-02-28T08:59:53.767Z,32.28
2024-02-28T09:02:20.732Z,32.28
2024-02-28T09:04:52.139Z,32.67
2024-02-28T09:07:22.699Z,32.27
2024-02-28T09:09:50.645Z,31.81
2024-02-28T09:12:17.584Z,32.77
2024-02-28T09:14:45.787Z,33.28
2024-02-28T09:17:12.691Z,33.45
2024-02-28T09:19:39.587Z,33.57
2024-02-28T09:22:06.439Z,34.45
2024-02-28T09:24:34.800Z,35.43
2024-02-28T09:27:01.470Z,35.87
2024-02-28T09:29:28.439Z,36.98
2024-02-28T09:31:55.094Z,35.68
2024-02-28T09:34:21.954Z,36.26
2024-02-28T09:36:51.024Z,36.72
2024-02-28T09:39:18.264Z,37.32
2024-02-28T09:41:45.327Z,37.44
2024-02-28T09:44:13.492Z,38.94
2024-02-28T09:46:40.679Z,38.49
2024-02-28T09:49:08.656Z,37.69
2024-02-28T09:51:36.849Z,36.94
2024-02-28T09:54:07.009Z,36.75
2024-02-28T09:56:34.268Z,36.16
2024-02-28T09:59:04.131Z,36.92
2024-02-28T10:01:31.757Z,35.78
2024-02-28T10:04:02.146Z,35.97
2024-02-28T10:06:28.980Z,35.50
2024-02-28T10:08:55.661Z,35.45
2024-02-28T10:11:23.142Z,34.19
2024-02-28T10:13:50.246Z,33.93
2024-02-28T10:16:17.561Z,33.97
2024-02-28T10:18:45.489Z,34.84
2024-02-28T10:21:16.270Z,34.18
2024-02-28T10:23:43.277Z,34.93
2024-02-28T10:26:11.255Z,34.16
2024-02-28T10:28:43.700Z,34.43
2024-02-28T10:31:11.633Z,33.64
2024-02-28T10:33:38.620Z,33.04
2024-02-28T10:36:06.390Z,32.87
2024-02-28T10:38:39.945Z,32.67
2024-02-28T10:41:09.859Z,32.04
2024-02-28T10:43:40.455Z,32.61
2024-02-28T10:46:26.029Z,31.88
2024-02-28T10:48:56.177Z,31.98
2024-02-28T10:51:28.539Z,31.99
2024-02-28T10:54:14.682Z,34.30
2024-02-28T10:56:43.987Z,35.59
2024-02-28T10:59:12.886Z,36.25
2024-02-28T11:01:46.088Z,36.58
2024-02-28T11:04:16.267Z,36.61
2024-02-28T11:06:58.053Z,37.32
2024-02-28T11:09:31.712Z,36.63
2024-02-28T11:11:58.530Z,36.47
2024-02-28T11:14:28.186Z,36.31
2024-02-28T11:17:03.364Z,36.24
2024-02-28T11:19:35.480Z,35.89
2024-02-28T11:22:06.204Z,36.12
2024-02-28T11:24:35.901Z,36.06
2024-02-28T11:27:06.967Z,37.17
2024-02-28T11:29:33.648Z,36.76
2024-02-28T11:32:00.405Z,35.54
2024-02-28T11:34:27.264Z,34.99
2024-02-28T11:36:56.521Z,35.51
2024-02-28T11:39:26.015Z,35.35
2024-02-28T11:41:54.874Z,32.57
2024-02-28T11:44:21.710Z,33.09
2024-02-28T11:46:51.265Z,32.49
2024-02-28T11:49:19.072Z,32.17
2024-02-28T11:51:46.398Z,30.85
2024-02-28T11:54:16.382Z,31.72
2024-02-28T11:56:43.359Z,31.26
2024-02-28T11:59:12.795Z,31.73
2024-02-28T12:01:42.566Z,31.82
2024-02-28T12:04:11.383Z,33.29
2024-02-28T12:06:39.457Z,34.72
2024-02-28T12:09:18.925Z,34.56
2024-02-28T12:11:51.417Z,33.94
2024-02-28T12:14:18.303Z,32.35
2024-02-28T12:16:47.075Z,32.77
2024-02-28T12:19:14.325Z,32.23
2024-02-28T12:21:41.947Z,32.39
2024-02-28T12:24:10.963Z,33.83
2024-02-28T12:26:38.727Z,33.16
2024-02-28T12:29:05.818Z,30.85
2024-02-28T12:31:32.723Z,30.08
2024-02-28T12:33:59.808Z,28.65
2024-02-28T12:36:27.808Z,28.11
2024-02-28T12:38:54.824Z,28.94
2024-02-28T12:41:21.730Z,28.70
2024-02-28T12:43:48.422Z,28.27
2024-02-28T12:46:15.211Z,29.32
2024-02-28T12:48:42.257Z,29.70
2024-02-28T12:51:14.474Z,28.51
2024-02-28T12:53:41.612Z,29.06
2024-02-28T12:56:08.295Z,29.66
2024-02-28T12:58:34.947Z,29.07
2024-02-28T13:01:02.275Z,29.66
2024-02-28T13:03:29.056Z,29.68
2024-02-28T13:05:55.750Z,30.27
2024-02-28T13:08:22.406Z,29.80
2024-02-28T13:10:49.021Z,30.60
2024-02-28T13:13:15.691Z,30.12
2024-02-28T13:15:42.685Z,30.40
2024-02-28T13:18:14.314Z,30.13
2024-02-28T13:20:41.517Z,29.53
2024-02-28T13:23:08.335Z,29.90
2024-02-28T13:25:34.970Z,28.51
2024-02-28T13:28:01.744Z,29.18
2024-02-28T13:30:28.903Z,28.05
2024-02-28T13:32:55.573Z,28.17
2024-02-28T13:35:22.435Z,28.92
2024-02-28T13:37:49.073Z,28.81
2024-02-28T13:40:15.885Z,29.24
2024-02-28T13:42:42.676Z,28.62
2024-02-28T13:45:10.645Z,28.55
2024-02-28T13:47:37.332Z,28.66
2024-02-28T13:50:04.377Z,29.51
2024-02-28T13:52:30.995Z,29.19
2024-02-28T13:54:57.764Z,28.98
2024-02-28T13:57:24.548Z,28.80
2024-02-28T13:59:54.582Z,28.26
2024-02-28T14:02:23.243Z,28.67
2024-02-28T14:04:50.207Z,28.80
2024-02-28T14:07:17.659Z,28.82
2024-02-28T14:09:46.039Z,30.46
2024-02-28T14:12:13.391Z,30.29
2024-02-28T14:14:40.755Z,30.87
2024-02-28T14:17:08.129Z,30.83
2024-02-28T14:19:36.360Z,30.73
2024-02-28T14:22:04.330Z,30.59
2024-02-28T14:24:31.302Z,30.92
2024-02-28T14:26:57.982Z,29.62
2024-02-28T14:29:24.606Z,29.27
2024-02-28T14:31:51.287Z,28.20
2024-02-28T14:34:17.943Z,28.42
2024-02-28T14:36:44.747Z,27.91
2024-02-28T14:39:16.241Z,28.05
2024-02-28T14:41:47.324Z,27.55
2024-02-28T14:44:14.533Z,27.78
2024-02-28T14:46:42.123Z,27.27
2024-02-28T14:49:08.837Z,27.83
2024-02-28T14:51:36.847Z,27.94
2024-02-28T14:54:04.728Z,27.30
2024-02-28T14:56:31.320Z,25.98
2024-02-28T14:58:58.025Z,25.57
2024-02-28T15:01:25.131Z,25.64
2024-02-28T15:03:52.737Z,24.36
2024-02-28T15:06:19.518Z,22.90
2024-02-28T15:08:46.139Z,22.23
2024-02-28T15:11:12.849Z,22.88
2024-02-28T15:13:39.647Z,22.13
2024-02-28T15:16:06.906Z,21.46
2024-02-28T15:18:33.968Z,22.64
2024-02-28T15:21:02.796Z,23.31
2024-02-28T15:23:32.271Z,22.00
2024-02-28T15:26:00.193Z,22.20
2024-02-28T15:28:28.132Z,22.59
2024-02-28T15:30:56.407Z,22.15
2024-02-28T15:33:23.597Z,22.29
2024-02-28T15:35:50.535Z,22.54
2024-02-28T15:38:17.215Z,22.31
2024-02-28T15:40:44.373Z,22.32
2024-02-28T15:43:11.640Z,22.05
2024-02-28T15:45:40.703Z,22.66
2024-02-28T15:48:07.963Z,22.72
2024-02-28T15:50:34.805Z,22.73
2024-02-28T15:53:01.709Z,22.19
2024-02-28T15:55:28.330Z,23.40
2024-02-28T15:57:56.681Z,23.73
2024-02-28T16:00:23.699Z,23.67
2024-02-28T16:02:50.423Z,23.93
2024-02-28T16:05:17.382Z,23.43
2024-02-28T16:07:45.219Z,23.25
2024-02-28T16:10:11.890Z,23.32
2024-02-28T16:12:38.731Z,22.99
2024-02-28T16:15:08.992Z,23.38
2024-02-28T16:17:35.749Z,23.43
2024-02-28T16:20:03.617Z,23.63
2024-02-28T16:22:30.646Z,23.95
2024-02-28T16:24:57.346Z,23.71
2024-02-28T16:27:24.179Z,23.90
2024-02-28T16:29:51.809Z,23.86
2024-02-28T16:32:18.526Z,23.06
2024-02-28T16:34:45.165Z,24.05
2024-02-28T16:37:11.925Z,24.67
2024-02-28T16:39:38.608Z,25.28
2024-02-28T16:42:05.575Z,25.05
2024-02-28T16:44:32.460Z,25.86
2024-02-28T16:46:59.377Z,25.43
2024-02-28T16:49:26.094Z,25.58
2024-02-28T16:51:52.710Z,24.53
2024-02-28T16:54:20.517Z,25.16
2024-02-28T16:56:47.869Z,26.59
2024-02-28T16:59:15.125Z,26.89
2024-02-28T17:01:42.924Z,25.99
2024-02-28T17:04:09.678Z,26.94
2024-02-28T17:06:36.568Z,26.86
2024-02-28T17:09:04.038Z,31.82
2024-02-28T17:11:30.792Z,29.52
2024-02-28T17:13:57.458Z,28.20
2024-02-28T17:16:24.146Z,32.00
2024-02-28T17:18:50.890Z,31.87
2024-02-28T17:21:17.659Z,25.76
2024-02-28T17:23:44.307Z,25.12
2024-02-28T17:26:12.440Z,27.72
2024-02-28T17:28:39.072Z,26.29
2024-02-28T17:31:05.723Z,25.19
2024-02-28T17:33:32.470Z,25.35
2024-02-28T17:35:59.158Z,26.65
2024-02-28T17:38:25.922Z,25.76
2024-02-28T17:40:52.563Z,25.12
2024-02-28T17:43:20.592Z,26.44
2024-02-28T17:45:47.416Z,24.49
2024-02-28T17:48:14.254Z,24.79
2024-02-28T17:50:40.949Z,27.08
2024-02-28T17:53:07.607Z,26.15
2024-02-28T17:55:34.296Z,25.67
2024-02-28T17:58:01.089Z,25.03
2024-02-28T18:00:28.333Z,25.71
2024-02-28T18:02:55.279Z,25.73
2024-02-28T18:05:24.519Z,25.15
2024-02-28T18:07:53.950Z,25.94
2024-02-28T18:10:21.121Z,26.51
2024-02-28T18:12:47.843Z,25.29
2024-02-28T18:15:14.712Z,25.68
2024-02-28T18:17:41.385Z,25.56
2024-02-28T18:20:08.867Z,25.58
2024-02-28T18:22:36.331Z,26.89
2024-02-28T18:25:04.345Z,26.79
2024-02-28T18:27:31.228Z,28.14
2024-02-28T18:29:57.914Z,26.51
2024-02-28T18:32:24.779Z,28.34
2024-02-28T18:34:53.436Z,28.28
2024-02-28T18:37:20.514Z,27.80
2024-02-28T18:39:47.332Z,27.04
2024-02-28T18:42:14.023Z,25.95
2024-02-28T18:44:40.726Z,25.96
2024-02-28T18:47:07.464Z,25.08
2024-02-28T18:49:34.290Z,27.43
2024-02-28T18:52:01.478Z,27.15
2024-02-28T18:54:29.226Z,25.09
2024-02-28T18:56:56.056Z,24.87
2024-02-28T18:59:23.196Z,24.13
2024-02-28T19:01:51.198Z,23.81
2024-02-28T19:04:18.231Z,24.54
2024-02-28T19:06:46.156Z,23.69
2024-02-28T19:09:12.896Z,24.75
2024-02-28T19:11:39.628Z,24.35
2024-02-28T19:14:06.395Z,23.81
2024-02-28T19:16:33.095Z,23.06
2024-02-28T19:18:59.747Z,22.10
2024-02-28T19:21:26.479Z,24.15
2024-02-28T19:23:55.402Z,23.03
2024-02-28T19:26:24.578Z,24.30
2024-02-28T19:28:51.225Z,23.19
2024-02-28T19:31:18.147Z,23.06
2024-02-28T19:33:44.894Z,23.02
2024-02-28T19:36:11.635Z,21.66
2024-02-28T19:38:38.315Z,22.07
2024-02-28T19:41:05.174Z,22.11
2024-02-28T19:43:34.107Z,21.51
2024-02-28T19:46:01.594Z,22.49
2024-02-28T19:48:28.596Z,22.58
2024-02-28T19:50:55.447Z,22.70
2024-02-28T19:53:24.244Z,21.98
2024-02-28T19:55:50.879Z,24.57
2024-02-28T19:58:17.864Z,25.32
2024-02-28T20:00:44.554Z,23.43
2024-02-28T20:03:11.381Z,22.40
2024-02-28T20:05:38.018Z,23.06
2024-02-28T20:08:05.108Z,24.90
2024-02-28T20:10:34.888Z,24.09
2024-02-28T20:13:02.851Z,23.67
2024-02-28T20:15:29.680Z,23.73
2024-02-28T20:17:57.307Z,22.72
2024-02-28T20:20:24.636Z,22.15
2024-02-28T20:22:51.411Z,23.61
2024-02-28T20:25:18.125Z,23.37
2024-02-28T20:27:45.047Z,24.97
2024-02-28T20:30:13.255Z,26.80
2024-02-28T20:32:39.942Z,26.85
2024-02-28T20:35:08.690Z,22.87
2024-02-28T20:37:35.421Z,20.73
2024-02-28T20:40:04.403Z,20.73
2024-02-28T20:42:31.086Z,19.80
2024-02-28T20:44:57.861Z,19.59
2024-02-28T20:47:24.463Z,19.68
2024-02-28T20:49:51.336Z,19.97
2024-02-28T20:52:17.977Z,19.86
2024-02-28T20:54:46.906Z,19.97
2024-02-28T20:57:17.061Z,19.54
2024-02-28T20:59:44.197Z,19.72
2024-02-28T21:02:11.267Z,19.59
2024-02-28T21:04:39.987Z,19.88
2024-02-28T21:07:06.661Z,19.96
2024-02-28T21:09:33.763Z,19.83
2024-02-28T21:12:06.369Z,19.40
2024-02-28T21:14:33.050Z,19.28
2024-02-28T21:16:59.773Z,18.50
2024-02-28T21:19:26.820Z,19.06
2024-02-28T21:21:56.318Z,17.91
2024-02-28T21:24:22.945Z,18.22
2024-02-28T21:26:49.614Z,18.80
2024-02-28T21:29:16.714Z,19.00
2024-02-28T21:31:46.434Z,18.56
2024-02-28T21:34:13.156Z,17.66
2024-02-28T21:36:40.094Z,17.87
2024-02-28T21:39:09.995Z,17.46
2024-02-28T21:41:36.792Z,17.33
2024-02-28T21:44:03.610Z,17.95
2024-02-28T21:46:30.284Z,17.80
2024-02-28T21:49:02.999Z,18.30
2024-02-28T21:51:36.570Z,17.90
2024-02-28T21:54:03.352Z,18.46
2024-02-28T21:56:29.984Z,18.94
2024-02-28T21:58:56.858Z,18.76
2024-02-28T22:01:26.406Z,19.15
2024-02-28T22:03:54.010Z,19.27
2024-02-28T22:06:20.782Z,20.20
2024-02-28T22:08:47.411Z,20.45
2024-02-28T22:11:14.142Z,20.15
2024-02-28T22:13:40.787Z,20.47
2024-02-28T22:16:07.525Z,19.80
2024-02-28T22:18:34.323Z,20.54
2024-02-28T22:21:00.980Z,20.42
2024-02-28T22:23:29.864Z,20.77
2024-02-28T22:25:58.836Z,20.48
2024-02-28T22:28:25.498Z,20.94
2024-02-28T22:30:54.622Z,21.14
2024-02-28T22:33:21.551Z,21.08
2024-02-28T22:35:48.187Z,20.89
2024-02-28T22:38:14.866Z,21.57
2024-02-28T22:40:41.489Z,20.58
2024-02-28T22:43:08.172Z,21.06
2024-02-28T22:45:34.993Z,20.91
2024-02-28T22:48:01.735Z,20.65
2024-02-28T22:50:28.483Z,20.80
2024-02-28T22:52:55.144Z,20.97
2024-02-28T22:55:22.017Z,21.39
2024-02-28T22:57:48.853Z,20.88
2024-02-28T23:00:31.979Z,21.39
2024-02-28T23:03:00.277Z,21.17
2024-02-28T23:05:29.127Z,21.00
2024-02-28T23:07:56.328Z,20.51
2024-02-28T23:10:24.764Z,20.41
2024-02-28T23:12:52.717Z,20.92
2024-02-28T23:15:23.475Z,20.49
2024-02-28T23:17:52.864Z,20.86
2024-02-28T23:20:25.485Z,20.29
2024-02-28T23:22:53.415Z,20.49
2024-02-28T23:25:21.476Z,20.95
2024-02-28T23:27:50.154Z,20.69
2024-02-28T23:30:17.377Z,20.48
2024-02-28T23:32:44.219Z,19.87
2024-02-28T23:35:11.062Z,20.77
2024-02-28T23:37:38.274Z,20.62
2024-02-28T23:40:06.916Z,20.96
2024-02-28T23:42:34.811Z,20.83
2024-02-28T23:45:01.865Z,20.57
2024-02-28T23:47:28.602Z,20.06
2024-02-28T23:49:55.522Z,20.23
2024-02-28T23:52:22.282Z,20.34
2024-02-28T23:54:48.984Z,19.90
2024-02-28T23:57:15.598Z,20.31
2024-02-28T23:59:43.078Z,20.28
